createdAt,value
2018-11-26T00:01:33.076Z,32.80
2018-11-26T00:04:01.442Z,27.30
2018-11-26T00:06:29.818Z,27.77
2018-11-26T00:08:58.244Z,32.50
2018-11-26T00:11:30.844Z,30.17
2018-11-26T00:13:59.182Z,28.73
2018-11-26T00:16:27.567Z,31.43
2018-11-26T00:18:55.910Z,30.73
2018-11-26T00:21:24.302Z,29.47
2018-11-26T00:23:52.651Z,28.07
2018-11-26T00:26:21.016Z,30.57
2018-11-26T00:28:49.353Z,29.73
2018-11-26T00:31:17.721Z,33.23
2018-11-26T00:33:46.361Z,32.10
2018-11-26T00:36:15.022Z,30.00
2018-11-26T00:38:43.383Z,31.10
2018-11-26T00:41:12.008Z,28.50
2018-11-26T00:43:40.315Z,30.03
2018-11-26T00:46:08.635Z,33.57
2018-11-26T00:48:37.124Z,31.73
2018-11-26T00:51:06.491Z,30.87
2018-11-26T00:53:35.018Z,30.77
2018-11-26T00:56:04.248Z,31.00
2018-11-26T00:58:32.574Z,32.10
2018-11-26T01:01:01.271Z,35.17
2018-11-26T01:03:29.717Z,29.07
2018-11-26T01:05:58.913Z,31.13
2018-11-26T01:08:27.261Z,32.80
2018-11-26T01:10:55.690Z,31.03
2018-11-26T01:13:24.541Z,28.77
2018-11-26T01:15:52.987Z,33.83
2018-11-26T01:18:21.893Z,30.83
2018-11-26T01:20:50.580Z,32.57
2018-11-26T01:23:19.055Z,33.00
2018-11-26T01:25:47.894Z,30.50
2018-11-26T01:28:16.254Z,31.00
2018-11-26T01:30:44.588Z,32.17
2018-11-26T01:33:12.910Z,38.30
2018-11-26T01:35:41.242Z,34.03
2018-11-26T01:38:09.552Z,33.57
2018-11-26T01:40:43.457Z,32.23
2018-11-26T01:43:11.797Z,31.83
2018-11-26T01:45:40.112Z,34.60
2018-11-26T01:48:08.487Z,35.03
2018-11-26T01:50:36.834Z,36.03
2018-11-26T01:53:06.356Z,33.93
2018-11-26T11:07:59.461Z,15.77
2018-11-26T11:10:30.030Z,15.77
2018-11-26T11:12:58.478Z,18.17
2018-11-26T11:15:27.539Z,16.70
2018-11-26T11:17:55.992Z,17.40
2018-11-26T11:20:26.417Z,17.40
2018-11-26T11:22:55.100Z,17.87
2018-11-26T11:25:23.787Z,16.20
2018-11-26T11:27:52.384Z,18.60
2018-11-26T11:30:21.880Z,18.43
2018-11-26T11:32:50.246Z,18.23
2018-11-26T11:35:18.910Z,17.77
2018-11-26T11:37:48.146Z,16.37
2018-11-26T11:40:18.456Z,19.50
2018-11-26T11:42:46.993Z,17.37
2018-11-26T11:45:15.484Z,15.90
2018-11-26T11:47:43.860Z,19.80
2018-11-26T11:50:14.371Z,20.47
2018-11-26T11:52:42.754Z,17.17
2018-11-26T11:55:18.232Z,15.83
2018-11-26T11:57:46.636Z,16.47
2018-11-26T12:00:41.851Z,16.17
2018-11-26T12:03:16.028Z,17.70
2018-11-26T12:05:44.453Z,17.97
2018-11-26T12:08:12.853Z,16.27
2018-11-26T12:10:41.196Z,16.67
2018-11-26T12:13:10.948Z,17.63
2018-11-26T12:15:40.867Z,18.30
2018-11-26T12:18:10.257Z,18.03
2018-11-26T12:20:38.651Z,18.50
2018-11-26T12:23:07.438Z,18.83
2018-11-26T12:25:35.815Z,19.23
2018-11-26T12:28:04.253Z,21.07
2018-11-26T12:30:34.179Z,19.83
2018-11-26T12:33:02.487Z,20.17
2018-11-26T12:35:30.842Z,20.10
2018-11-26T12:37:59.218Z,20.37
2018-11-26T12:40:27.552Z,18.13
2018-11-26T12:42:57.150Z,22.97
2018-11-26T12:45:27.651Z,18.13
2018-11-26T12:47:56.052Z,20.33
2018-11-26T12:50:24.454Z,20.27
2018-11-26T12:52:53.138Z,19.97
2018-11-26T12:55:22.360Z,19.83
2018-11-26T12:57:51.313Z,19.73
2018-11-26T13:00:22.605Z,20.53
2018-11-26T13:02:52.115Z,19.90
2018-11-26T13:05:20.842Z,20.53
2018-11-26T13:07:49.253Z,20.77
2018-11-26T13:10:18.968Z,20.30
2018-11-26T13:12:48.061Z,24.03
2018-11-26T13:15:18.487Z,22.40
2018-11-26T13:17:47.013Z,21.83
2018-11-26T13:20:16.398Z,26.03
2018-11-26T13:22:44.814Z,23.77
2018-11-26T13:25:16.120Z,25.03
2018-11-26T13:27:47.849Z,22.73
2018-11-26T13:30:18.396Z,25.40
2018-11-26T13:32:47.923Z,23.13
2018-11-26T13:35:17.179Z,22.87
2018-11-26T13:37:45.584Z,24.10
2018-11-26T13:40:14.784Z,23.80
2018-11-26T13:42:43.313Z,25.43
2018-11-26T13:45:13.921Z,25.50
2018-11-26T13:47:42.627Z,20.93
2018-11-26T13:50:13.728Z,26.13
2018-11-26T13:52:42.093Z,23.57
2018-11-26T13:55:12.255Z,25.23
2018-11-26T13:57:40.614Z,24.43
2018-11-26T14:00:11.364Z,26.33
2018-11-26T14:02:39.730Z,24.10
2018-11-26T14:05:10.460Z,25.23
2018-11-26T14:07:38.831Z,24.70
2018-11-26T14:10:12.943Z,26.20
2018-11-26T14:12:41.910Z,25.30
2018-11-26T14:15:12.218Z,25.97
2018-11-26T14:17:40.769Z,26.77
2018-11-26T14:20:11.482Z,25.80
2018-11-26T14:22:39.914Z,23.60
2018-11-26T14:25:12.585Z,24.90
2018-11-26T14:27:41.490Z,23.23
2018-11-26T14:30:12.574Z,24.03
2018-11-26T14:32:40.984Z,24.43
2018-11-26T14:35:09.477Z,24.17
2018-11-26T14:37:37.878Z,23.90
2018-11-26T14:40:09.786Z,23.57
2018-11-26T14:42:38.248Z,23.13
2018-11-26T14:45:08.737Z,23.47
2018-11-26T14:47:37.107Z,26.50
2018-11-26T14:50:08.637Z,22.03
2018-11-26T14:52:37.333Z,26.43
2018-11-26T14:55:09.381Z,24.03
2018-11-26T14:57:37.769Z,26.97
2018-11-26T15:00:09.453Z,24.83
2018-11-26T15:02:37.841Z,23.23
2018-11-26T15:05:06.294Z,26.73
2018-11-26T15:07:34.717Z,22.50
2018-11-26T15:10:03.202Z,25.60
2018-11-26T15:12:31.885Z,24.67
2018-11-26T15:15:00.018Z,24.00
2018-11-26T15:17:28.343Z,26.50
2018-11-26T15:19:56.731Z,25.03
2018-11-26T15:22:25.112Z,23.47
2018-11-26T15:24:53.511Z,24.90
2018-11-26T15:27:21.882Z,26.63
2018-11-26T15:29:50.300Z,24.80
2018-11-26T15:32:18.708Z,25.30
2018-11-26T15:34:47.111Z,25.67
2018-11-26T15:37:15.489Z,26.43
2018-11-26T15:39:43.869Z,25.17
2018-11-26T15:42:12.249Z,26.47
2018-11-26T15:44:40.633Z,26.73
2018-11-26T15:47:08.996Z,24.27
2018-11-26T15:49:37.428Z,25.40
2018-11-26T15:52:06.006Z,24.43
2018-11-26T15:54:34.413Z,26.43
2018-11-26T15:57:02.792Z,24.90
2018-11-26T15:59:31.199Z,26.83
2018-11-26T16:01:59.565Z,27.27
2018-11-26T16:04:28.259Z,23.60
2018-11-26T16:06:56.602Z,25.47
2018-11-26T16:09:24.962Z,25.83
2018-11-26T16:11:53.339Z,25.07
2018-11-26T16:14:21.708Z,24.47
2018-11-26T16:16:50.118Z,26.70
2018-11-26T16:19:18.511Z,25.93
2018-11-26T16:21:46.908Z,23.87
2018-11-26T16:24:15.264Z,22.93
2018-11-26T16:26:43.610Z,27.77
2018-11-26T16:29:11.982Z,24.93
2018-11-26T16:31:40.421Z,25.87
2018-11-26T16:34:09.364Z,24.50
2018-11-26T16:36:37.733Z,24.27
2018-11-26T16:39:08.102Z,24.47
2018-11-26T16:41:36.439Z,25.17
2018-11-26T16:44:04.928Z,25.50
2018-11-26T16:46:33.320Z,23.97
2018-11-26T16:49:01.672Z,24.37
2018-11-26T16:51:30.056Z,25.03
2018-11-26T16:53:58.457Z,25.10
2018-11-26T16:56:26.865Z,22.80
2018-11-26T16:58:55.258Z,24.97
2018-11-26T17:01:23.636Z,24.47
2018-11-26T17:03:52.129Z,23.20
2018-11-26T17:06:20.500Z,27.53
2018-11-26T17:08:48.865Z,25.40
2018-11-26T17:11:17.229Z,24.60
2018-11-26T17:13:45.622Z,26.17
2018-11-26T17:16:13.974Z,24.63
2018-11-26T17:18:42.360Z,25.07
2018-11-26T17:21:10.697Z,23.60
2018-11-26T17:23:39.071Z,24.27
2018-11-26T17:26:07.472Z,24.07
2018-11-26T17:28:35.847Z,23.77
2018-11-26T17:31:04.307Z,23.13
2018-11-26T17:33:32.935Z,21.23
2018-11-26T17:36:01.329Z,23.67
2018-11-26T17:38:29.729Z,20.80
2018-11-26T17:40:58.108Z,22.47
2018-11-26T17:43:26.482Z,21.83
2018-11-26T17:45:54.842Z,19.83
2018-11-26T17:48:23.254Z,20.80
2018-11-26T17:50:51.645Z,21.80
2018-11-26T17:53:21.071Z,19.70
2018-11-26T17:55:54.629Z,20.77
2018-11-26T17:58:24.271Z,20.27
2018-11-26T18:01:58.490Z,20.60
2018-11-26T18:04:26.868Z,22.33
2018-11-26T18:06:55.221Z,22.57
2018-11-26T18:09:23.586Z,22.33
2018-11-26T18:11:51.985Z,21.93
2018-11-26T18:14:20.370Z,21.33
2018-11-26T18:16:48.753Z,21.80
2018-11-26T18:19:17.182Z,22.73
2018-11-26T18:21:45.589Z,20.57
2018-11-26T18:24:14.025Z,19.73
2018-11-26T18:26:42.390Z,22.30
2018-11-26T18:29:10.790Z,20.73
2018-11-26T18:31:39.201Z,20.13
2018-11-26T18:34:08.089Z,18.70
2018-11-26T18:36:36.449Z,22.07
2018-11-26T18:39:08.292Z,20.30
2018-11-26T18:41:36.657Z,20.93
2018-11-26T18:44:05.493Z,20.03
2018-11-26T18:46:33.869Z,19.37
2018-11-26T18:49:02.243Z,20.13
2018-11-26T18:51:30.594Z,19.67
2018-11-26T18:53:59.009Z,20.27
2018-11-26T18:56:27.343Z,20.87
2018-11-26T18:58:55.700Z,19.87
2018-11-26T19:01:24.069Z,18.97
2018-11-26T19:03:52.573Z,18.93
2018-11-26T19:06:20.941Z,18.20
2018-11-26T19:08:49.386Z,19.73
2018-11-26T19:11:18.497Z,16.77
2018-11-26T19:13:54.998Z,19.63
2018-11-26T19:16:25.816Z,19.83
2018-11-26T19:18:54.284Z,21.77
2018-11-26T19:21:22.658Z,22.60
2018-11-26T19:23:51.051Z,17.40
2018-11-26T19:26:19.429Z,20.57
2018-11-26T19:28:47.814Z,17.07
2018-11-26T19:31:16.140Z,16.43
2018-11-26T19:33:44.745Z,19.73
2018-11-26T19:36:13.092Z,15.30
2018-11-26T19:38:41.413Z,16.80
2018-11-26T19:41:09.778Z,17.77
2018-11-26T19:43:38.135Z,17.07
2018-11-26T19:46:06.917Z,18.60
2018-11-26T19:48:35.333Z,19.40
2018-11-26T19:51:03.816Z,16.67
2018-11-26T19:53:32.242Z,16.90
2018-11-26T19:56:00.611Z,15.57
2018-11-26T19:58:28.969Z,20.03
2018-11-26T20:00:57.387Z,17.13
2018-11-26T20:03:33.841Z,16.90
2018-11-26T20:06:11.606Z,16.27
2018-11-26T20:08:40.737Z,17.00
2018-11-26T20:11:09.390Z,17.03
2018-11-26T20:13:37.780Z,16.13
2018-11-26T20:16:09.035Z,16.80
2018-11-26T20:18:37.437Z,14.57
2018-11-26T20:21:06.806Z,16.63
2018-11-26T20:23:35.177Z,15.40
2018-11-26T20:26:03.569Z,17.13
2018-11-26T20:28:31.926Z,14.83
2018-11-26T20:31:00.339Z,16.37
2018-11-26T20:33:28.729Z,15.13
2018-11-26T20:35:57.108Z,15.80
2018-11-26T20:38:25.495Z,15.97
2018-11-26T20:40:54.005Z,16.07
2018-11-26T20:43:22.419Z,13.73
2018-11-26T20:45:50.993Z,15.13
2018-11-26T20:48:19.417Z,16.77
2018-11-26T20:50:49.433Z,15.90
2018-11-26T20:53:18.646Z,16.43
2018-11-26T20:55:47.063Z,14.97
2018-11-26T20:58:15.426Z,15.33
2018-11-26T21:00:43.909Z,15.57
2018-11-26T21:03:12.513Z,14.23
2018-11-26T21:05:41.738Z,15.97
2018-11-26T21:08:10.281Z,14.30
2018-11-26T21:10:38.887Z,15.37
2018-11-26T21:13:07.806Z,14.40
2018-11-26T21:15:36.473Z,45.17
2018-11-26T21:18:11.325Z,16.03
2018-11-26T21:20:44.690Z,16.53
2018-11-26T21:23:21.877Z,14.93
2018-11-26T21:25:50.557Z,14.47
2018-11-26T21:28:19.101Z,14.57
2018-11-26T21:30:52.005Z,14.33
2018-11-26T21:33:16.308Z,16.40
2018-11-26T21:35:44.799Z,13.50
2018-11-26T21:38:13.408Z,15.90
2018-11-26T21:40:42.056Z,15.40
2018-11-26T21:43:11.558Z,15.47
2018-11-26T21:45:48.041Z,14.57
2018-11-26T21:48:16.546Z,14.77
2018-11-26T21:50:45.128Z,15.73
2018-11-26T21:53:13.740Z,14.93
2018-11-26T21:55:42.368Z,16.77
2018-11-26T21:58:10.943Z,15.90
2018-11-26T22:00:40.412Z,16.60
2018-11-26T22:03:11.406Z,15.83
2018-11-26T22:05:41.012Z,15.87
2018-11-26T22:08:10.312Z,16.10
2018-11-26T22:10:39.860Z,16.13
2018-11-26T22:13:09.624Z,17.00
2018-11-26T22:15:38.206Z,16.57
2018-11-26T22:18:07.624Z,16.73
2018-11-26T22:20:36.258Z,18.50
2018-11-26T22:23:05.594Z,14.77
2018-11-26T22:25:34.158Z,16.57
2018-11-26T22:28:03.118Z,17.37
2018-11-26T22:30:32.930Z,16.53
2018-11-26T22:33:01.507Z,16.97
2018-11-26T22:35:30.051Z,17.23
2018-11-26T22:37:58.589Z,21.27
2018-11-26T22:40:27.574Z,15.97
2018-11-26T22:42:55.981Z,16.10
2018-11-26T22:45:27.500Z,15.80
2018-11-26T22:47:57.141Z,16.30
2018-11-26T22:50:25.549Z,14.63
2018-11-26T22:52:53.911Z,17.67
2018-11-26T22:55:22.598Z,16.47
2018-11-26T22:57:50.817Z,15.60
2018-11-26T23:00:56.043Z,14.77
2018-11-26T23:03:25.562Z,13.17
2018-11-26T23:05:53.966Z,13.60
2018-11-26T23:08:22.353Z,14.03
2018-11-26T23:10:50.716Z,13.40
2018-11-26T23:13:19.134Z,14.10
2018-11-26T23:15:47.515Z,13.23
2018-11-26T23:18:15.923Z,14.33
2018-11-26T23:20:44.290Z,14.97
2018-11-26T23:23:12.684Z,14.60
2018-11-26T23:25:41.064Z,15.67
2018-11-26T23:28:09.474Z,14.77
2018-11-26T23:30:37.861Z,12.93
2018-11-26T23:33:07.362Z,13.30
2018-11-26T23:35:35.749Z,14.83
2018-11-26T23:38:04.167Z,13.47
2018-11-26T23:40:32.527Z,12.83
2018-11-26T23:43:00.885Z,12.10
2018-11-26T23:45:29.681Z,13.23
2018-11-26T23:47:58.070Z,14.60
2018-11-26T23:50:26.483Z,14.03
2018-11-26T23:52:54.872Z,15.37
2018-11-26T23:55:24.033Z,15.40
2018-11-26T23:57:52.435Z,14.23
